Flight Track Log - Related Links

Times and Time Zones

All times are in EDT time to prevent confusion due to time zone crossing. See the UAL4335 flight status page for this flight to view local times or setup timezone preferences in your user account.

Time Position Orientation Groundspeed Altitude Reporting Facility
EDT Latitude Longitude Course Direction KTS MPH feet Rate Location/Type
Sat 03:33:53 PM 29.9569 -95.3369 90° East 167 192 800  Level Houston Center
Sat 03:35:00 PM 29.9503 -95.2653 96° East 230 265 3,000 2,356 Climbing Houston Center
Sat 03:36:00 PM 29.9834 -94.9093 90° East  Level FlightAware Approximate
Sat 03:36:08 PM 29.9531 -95.1806 88° East 243 280 6,100  Level Houston Center
Sat 03:37:00 PM 29.9834 -94.7680 90° East  Level FlightAware Approximate
Sat 03:37:13 PM 29.9589 -95.0944 86° East 267 307 8,500  Level Houston Center
Sat 03:38:00 PM 29.9833 -94.6266 90° East  Level FlightAware Approximate
Sat 03:38:14 PM 29.9639 -95.0011 86° East 286 329 10,800  Level Houston Center
Sat 03:39:00 PM 29.9834 -94.4853 90° East  Level FlightAware Approximate
Sat 03:39:16 PM 29.9703 -94.8867 86° East 318 366 12,200  Level Houston Center
Sat 03:40:18 PM 29.9764 -94.7817 86° East 359 413 13,500 1,306 Climbing Houston Center
Sat 03:41:20 PM 29.9828 -94.6597 87° East 377 434 14,900 1,452 Climbing Houston Center
Sat 03:42:22 PM 29.9892 -94.5075 87° East 394 453 16,500 1,366 Climbing Houston Center
Sat 03:43:23 PM 29.9939 -94.3836 87° East 405 466 17,700 1,122 Climbing Houston Center
Sat 03:44:25 PM 30.0019 -94.2508 86° East 415 478 18,800 1,210 Climbing Houston Center
Sat 03:45:27 PM 30.0200 -94.1197 81° East 415 478 20,200 1,452 Climbing Houston Center
Sat 03:46:29 PM 30.0356 -93.9858 82° East 421 484 21,800 1,645 Climbing Houston Center
Sat 03:47:31 PM 30.0556 -93.8275 82° East 420 483 23,600 1,597 Climbing Houston Center
Sat 03:48:33 PM 30.0714 -93.6942 82° East 425 489 25,100 1,463 Climbing Houston Center
Sat 03:49:34 PM 30.0875 -93.5611 82° East 423 487 26,600 1,122 Climbing Houston Center
Sat 03:50:36 PM 30.1022 -93.4256 83° East 431 496 27,400 1,016 Climbing Houston Center
Sat 03:51:38 PM 30.1186 -93.2903 82° East 433 498 28,700 774 Climbing Houston Center
Sat 03:52:40 PM 30.1392 -93.1217 82° East 444 511 29,000 927 Climbing Houston Center
Sat 03:53:41 PM 30.1744 -92.9817 74° East 447 514 30,600 1,610 Climbing Houston Center
Sat 03:54:43 PM 30.2361 -92.8692 58° Northeast 429 494 32,300 1,548 Climbing Houston Center
Sat 03:55:45 PM 30.2972 -92.7589 57° Northeast 417 480 33,800 1,161 Climbing Houston Center
Sat 03:56:47 PM 30.3569 -92.6503 57° Northeast 406 467 34,700 732 Climbing Houston Center
Sat 03:57:48 PM 30.4172 -92.5414 57° Northeast 404 465 35,300 780 Climbing Houston Center
Sat 03:58:50 PM 30.4906 -92.4067 58° Northeast 407 468 36,300 774 Climbing Houston Center
Sat 03:59:52 PM 30.5503 -92.2981 57° Northeast 405 466 36,900 339 Climbing Houston Center
Sat 04:00:54 PM 30.6106 -92.1881 57° Northeast 405 466 37,000 48 Climbing Houston Center
Sat 04:01:56 PM 30.6742 -92.0722 57° Northeast 420 483 37,000  Level Houston Center
Sat 04:02:57 PM 30.7406 -91.9511 57° Northeast 437 503 37,000  Level Houston Center
Sat 04:03:59 PM 30.8214 -91.8008 58° Northeast 448 516 37,000  Level Houston Center
Sat 04:05:01 PM 30.8911 -91.6703 58° Northeast 461 531 37,000  Level Houston Center
Sat 04:06:03 PM 30.9636 -91.5378 57° Northeast 477 549 37,000  Level Houston Center
Sat 04:07:05 PM 31.0375 -91.4011 58° Northeast 489 563 37,000  Level Houston Center
Sat 04:08:06 PM 31.1094 -91.2650 58° Northeast 491 565 37,000  Level Houston Center
Sat 04:09:08 PM 31.1814 -91.1303 58° Northeast 490 564 37,000  Level Houston Center
Sat 04:10:10 PM 31.2533 -90.9944 58° Northeast 491 565 37,000  Level Houston Center
Sat 04:11:12 PM 31.3256 -90.8581 58° Northeast 491 565 37,000  Level Houston Center
Sat 04:12:14 PM 31.4103 -90.6947 59° Northeast 490 564 37,000  Level Houston Center
Sat 04:13:16 PM 31.4831 -90.5581 58° Northeast 493 567 37,000  Level Houston Center
Sat 04:14:18 PM 31.5539 -90.4206 59° Northeast 491 565 37,000  Level Houston Center
Sat 04:15:19 PM 31.6267 -90.2825 58° Northeast 494 568 37,000  Level Houston Center
Sat 04:16:21 PM 31.6975 -90.1444 59° Northeast 492 566 37,000  Level Houston Center
Sat 04:17:06 PM 31.7531 -90.0397 58° Northeast 490 564 37,000  Level Memphis Center
Sat 04:18:06 PM 31.8339 -89.9172 52° Northeast 485 558 37,000  Level Memphis Center
Sat 04:19:06 PM 31.9253 -89.7944 49° Northeast 485 558 37,000  Level Memphis Center
Sat 04:20:06 PM 32.0125 -89.6739 50° Northeast 485 558 37,000  Level Memphis Center
Sat 04:21:06 PM 32.1097 -89.5431 49° Northeast 479 551 37,000  Level Memphis Center
Sat 04:22:06 PM 32.1967 -89.4194 50° Northeast 479 551 37,000  Level Memphis Center
Sat 04:23:06 PM 32.2853 -89.3006 49° Northeast 479 551 37,000  Level Memphis Center
Sat 04:24:06 PM 32.3719 -89.1792 50° Northeast 479 551 37,000  Level Memphis Center
Sat 04:25:06 PM 32.4583 -89.0597 49° Northeast 479 551 37,000  Level Memphis Center
Sat 04:26:06 PM 32.5469 -88.9378 49° Northeast 479 551 37,000  Level Memphis Center
Sat 04:27:06 PM 32.6311 -88.8156 51° Northeast 479 551 37,000  Level Memphis Center
Sat 04:28:06 PM 32.7192 -88.6956 49° Northeast 479 551 37,000  Level Memphis Center
Sat 04:29:06 PM 32.8053 -88.5728 50° Northeast 479 551 37,000  Level Memphis Center
Sat 04:30:06 PM 32.8931 -88.4497 50° Northeast 479 551 37,000  Level Memphis Center
Sat 04:31:06 PM 32.9767 -88.3292 50° Northeast 479 551 37,000  Level Memphis Center
Sat 04:32:06 PM 33.0622 -88.2033 51° Northeast 479 551 37,000  Level Memphis Center
Sat 04:34:17 PM 33.2528 -87.9286 50° Northeast 487 560 37,000  Level Atlanta Center
Sat 04:35:17 PM 33.3381 -87.8033 51° Northeast 487 560 37,000  Level Atlanta Center
Sat 04:36:17 PM 33.4253 -87.6800 50° Northeast 487 560 37,000  Level Atlanta Center
Sat 04:37:17 PM 33.5103 -87.5542 51° Northeast 482 555 37,000  Level Atlanta Center
Sat 04:38:17 PM 33.5972 -87.4281 50° Northeast 482 555 37,000  Level Atlanta Center
Sat 04:39:17 PM 33.6844 -87.2992 51° Northeast 482 555 37,000  Level Atlanta Center
Sat 04:40:17 PM 33.7711 -87.1725 51° Northeast 482 555 37,000  Level Atlanta Center
Sat 04:41:17 PM 33.8578 -87.0481 50° Northeast 482 555 37,000  Level Atlanta Center
Sat 04:42:17 PM 33.9356 -86.9281 52° Northeast 489 563 37,000  Level Atlanta Center
Sat 04:43:17 PM 34.0242 -86.8008 50° Northeast 489 563 37,000  Level Atlanta Center
Sat 04:44:17 PM 34.1106 -86.6731 51° Northeast 489 563 37,000  Level Atlanta Center
Sat 04:45:17 PM 34.1989 -86.5428 51° Northeast 489 563 37,000  Level Atlanta Center
Sat 04:46:17 PM 34.2869 -86.4097 51° Northeast 494 568 37,000  Level Atlanta Center
Sat 04:47:17 PM 34.3750 -86.2811 50° Northeast 494 568 37,000  Level Atlanta Center
Sat 04:48:17 PM 34.4608 -86.1475 52° Northeast 494 568 37,000  Level Atlanta Center
Sat 04:49:17 PM 34.5486 -86.0161 51° Northeast 494 568 37,000  Level Atlanta Center
Sat 04:50:17 PM 34.6361 -85.8867 51° Northeast 494 568 37,000  Level Atlanta Center
Sat 04:51:17 PM 34.7214 -85.7547 52° Northeast 494 568 37,000  Level Atlanta Center
Sat 04:52:17 PM 34.8067 -85.6225 52° Northeast 489 563 37,000  Level Atlanta Center
Sat 04:53:17 PM 34.8939 -85.4872 52° Northeast 494 568 37,000  Level Atlanta Center
Sat 04:54:17 PM 34.9811 -85.3544 51° Northeast 494 568 37,000  Level Atlanta Center
Sat 04:55:17 PM 35.0658 -85.2214 52° Northeast 500 575 37,000  Level Atlanta Center
Sat 04:56:17 PM 35.1547 -85.0853 51° Northeast 500 575 37,000  Level Atlanta Center
Sat 04:57:17 PM 35.2414 -84.9492 52° Northeast 505 581 37,000  Level Atlanta Center
Sat 04:58:17 PM 35.3278 -84.8153 52° Northeast 510 587 37,000  Level Atlanta Center
Sat 04:59:17 PM 35.4142 -84.6758 53° Northeast 510 587 37,000  Level Atlanta Center
Sat 05:00:17 PM 35.5025 -84.5389 52° Northeast 510 587 37,000  Level Atlanta Center
Sat 05:01:17 PM 35.5906 -84.4014 52° Northeast 510 587 37,000  Level Atlanta Center
Sat 05:02:17 PM 35.6764 -84.2636 52° Northeast 510 587 37,000  Level Atlanta Center
Sat 05:03:17 PM 35.7642 -84.1231 52° Northeast 510 587 37,000  Level Atlanta Center
Sat 05:04:17 PM 35.8497 -83.9850 53° Northeast 510 587 37,000  Level Atlanta Center
Sat 05:05:17 PM 35.9517 -83.8642 44° Northeast 503 579 37,000  Level Atlanta Center
Sat 05:07:40 PM 36.2458 -83.6786 27° Northeast 499 574 37,000  Level Indianapolis Center
Sat 05:08:41 PM 36.3692 -83.5994 27° Northeast 498 573 37,000  Level Indianapolis Center
Sat 05:09:43 PM 36.4922 -83.5203 27° Northeast 499 574 37,000  Level Indianapolis Center
Sat 05:10:44 PM 36.6406 -83.4281 27° Northeast 500 575 37,000  Level Indianapolis Center
Sat 05:11:46 PM 36.7644 -83.3478 27° Northeast 498 573 37,000  Level Indianapolis Center
Sat 05:12:47 PM 36.8881 -83.2678 27° Northeast 495 570 37,000  Level Indianapolis Center
Sat 05:13:49 PM 37.0131 -83.1881 27° Northeast 494 568 37,000  Level Indianapolis Center
Sat 05:14:50 PM 37.1386 -83.1067 27° Northeast 500 575 37,000  Level Indianapolis Center
Sat 05:15:52 PM 37.2617 -83.0250 28° Northeast 494 568 37,000  Level Indianapolis Center
Sat 05:16:53 PM 37.3867 -82.9450 27° Northeast 497 572 37,000  Level Indianapolis Center
Sat 05:17:54 PM 37.5089 -82.8633 28° Northeast 494 568 37,000  Level Indianapolis Center
Sat 05:18:56 PM 37.6331 -82.7808 28° Northeast 502 578 37,000  Level Indianapolis Center
Sat 05:19:57 PM 37.7544 -82.6986 28° Northeast 497 572 37,000  Level Indianapolis Center
Sat 05:20:59 PM 37.8775 -82.6186 27° Northeast 496 571 37,000 -49 Level Indianapolis Center
Sat 05:22:00 PM 38.0203 -82.5231 28° Northeast 496 571 36,900 -341 Descending Indianapolis Center
Sat 05:23:02 PM 38.1242 -82.4539 28° Northeast 502 578 36,300 -439 Descending Indianapolis Center
Sat 05:24:03 PM 38.2742 -82.3506 28° Northeast 507 583 36,000 -537 Descending Indianapolis Center
Sat 05:25:05 PM 38.3997 -82.2667 28° Northeast 509 586 35,200 -927 Descending Indianapolis Center
Sat 05:26:06 PM 38.5247 -82.1719 31° Northeast 517 595 34,100 -1,131 Descending Indianapolis Center
Sat 05:27:07 PM 38.6392 -82.0731 34° Northeast 497 572 32,900 -1,171 Descending Indianapolis Center
Sat 05:28:09 PM 38.7533 -81.9742 34° Northeast 489 563 31,700 -1,220 Descending Indianapolis Center
Sat 05:29:10 PM 38.8717 -81.8706 34° Northeast 505 581 30,400 -1,317 Descending Indianapolis Center
Sat 05:30:12 PM 38.9883 -81.7678 34° Northeast 503 579 29,000 -1,415 Descending Indianapolis Center
Sat 05:31:13 PM 39.1056 -81.6658 34° Northeast 502 578 27,500 -1,525 Descending Indianapolis Center
Sat 05:32:14 PM 39.2261 -81.5581 35° Northeast 520 598 25,900 -1,610 Descending Indianapolis Center
Sat 05:33:16 PM 39.3419 -81.4567 34° Northeast 505 581 24,200 -1,756 Descending Indianapolis Center
Sat 05:34:17 PM 39.4539 -81.3567 35° Northeast 490 564 22,300 -1,888 Descending Indianapolis Center
Sat 05:34:45 PM 39.5083 -81.3094 34° Northeast 486 559 21,400 -886 Descending Cleveland Center
Sat 05:35:45 PM 39.6153 -81.2108 35° Northeast 486 559 21,000 -700 Descending Cleveland Center
Sat 05:36:45 PM 39.7178 -81.1094 37° Northeast 472 543 20,000 -1,500 Descending Cleveland Center
Sat 05:37:45 PM 39.8183 -81.0100 37° Northeast 459 528 18,000 -2,250 Descending Cleveland Center
Sat 05:38:45 PM 39.9167 -80.9161 36° Northeast 448 516 15,500 -2,550 Descending Cleveland Center
Sat 05:39:45 PM 40.0086 -80.8217 38° Northeast 431 496 12,900 -2,400 Descending Cleveland Center
Sat 05:40:45 PM 40.0836 -80.7186 46° Northeast 409 471 10,700 -1,450 Descending Cleveland Center
Sat 05:41:45 PM 40.1567 -80.6211 46° Northeast 383 441 10,000 -350 Descending Cleveland Center
Sat 05:42:45 PM 40.2297 -80.5206 46° Northeast 377 434 10,000  Level Cleveland Center
Sat 05:43:45 PM 40.3006 -80.4253 46° Northeast 372 428 10,000 -500 Level Cleveland Center
Sat 05:44:45 PM 40.3317 -80.3108 70° East 317 365 9,000 -1,350 Descending Cleveland Center
Sat 05:45:45 PM 40.3564 -80.2069 73° East 298 343 7,300 -1,650 Descending Cleveland Center
Sat 05:46:45 PM 40.3756 -80.1122 75° East 280 322 5,700 -1,595 Descending FAA TRACON SMA TRACON (SMA)
Sat 05:47:04 PM 40.3825 -80.0833 72° East 275 316 5,200 -1,650 Descending FAA TRACON SMA TRACON (SMA)
Sat 05:47:25 PM 40.4011 -80.0583 46° Northeast 246 283 4,600 -1,714 Descending FAA TRACON SMA TRACON (SMA)

Login

Don't have an account? Register now (free) for customized features, flight alerts, and more!